createdAt,value
2023-04-22T00:00:31.179Z,2.8
2023-04-22T00:01:39.868Z,1.4
2023-04-22T00:02:49.764Z,1.5
2023-04-22T00:03:58.556Z,1.5
2023-04-22T00:05:07.227Z,1.6
2023-04-22T00:06:16.802Z,1
2023-04-22T00:07:24.568Z,1.3
2023-04-22T00:08:33.418Z,1.5
2023-04-22T00:09:43.093Z,1.5
2023-04-22T00:10:51.783Z,1.2
2023-04-22T00:12:01.457Z,1.7
2023-04-22T00:13:10.159Z,1.5
2023-04-22T00:14:17.839Z,1.6
2023-04-22T00:15:27.484Z,1
2023-04-22T00:16:35.287Z,1.4
2023-04-22T00:17:43.993Z,1.1
2023-04-22T00:18:53.705Z,1.3
2023-04-22T00:20:01.388Z,1.1
2023-04-22T00:21:11.117Z,1.2
2023-04-22T00:22:19.822Z,1
2023-04-22T00:23:27.573Z,1.2
2023-04-22T00:24:37.312Z,0.9
2023-04-22T00:25:46.995Z,0.9
2023-04-22T00:26:56.721Z,1.2
2023-04-22T00:28:06.462Z,0.7
2023-04-22T00:29:15.172Z,1.3
2023-04-22T00:30:24.883Z,0.8
2023-04-22T00:31:34.579Z,0.9
2023-04-22T00:32:42.288Z,1
2023-04-22T00:33:52.949Z,0.9
2023-04-22T00:35:00.626Z,1
2023-04-22T00:36:09.327Z,1.3
2023-04-22T00:37:19.052Z,1.5
2023-04-22T00:38:27.727Z,1.8
2023-04-22T00:39:37.719Z,1.6
2023-04-22T00:40:46.080Z,2.1
2023-04-22T00:41:54.812Z,1.7
2023-04-22T00:43:04.707Z,1.9
2023-04-22T00:44:12.412Z,1.5
2023-04-22T00:45:21.153Z,1.6
2023-04-22T00:46:30.810Z,1.3
2023-04-22T00:47:39.625Z,1.1
2023-04-22T00:48:49.305Z,1.1
2023-04-22T00:49:57.967Z,1
2023-04-22T00:51:05.667Z,1.3
2023-04-22T00:52:15.379Z,0.9
2023-04-22T00:53:24.086Z,1.2
2023-04-22T00:54:33.725Z,1.2
2023-04-22T00:55:43.403Z,1.2
2023-04-22T00:56:52.137Z,1.1
2023-04-22T00:58:01.864Z,1.2
2023-04-22T00:59:10.545Z,1
2023-04-22T01:00:19.265Z,1
2023-04-22T01:01:28.971Z,1.4
2023-04-22T01:02:37.709Z,1.8
2023-04-22T01:03:46.436Z,1.9
2023-04-22T01:04:55.979Z,1.8
2023-04-22T01:06:03.707Z,1.6
2023-04-22T01:07:13.347Z,1.8
2023-04-22T01:08:48.171Z,1.9
2023-04-22T01:09:56.781Z,2.2
2023-04-22T01:11:05.449Z,3.2
2023-04-22T01:12:14.090Z,3.3
2023-04-22T01:13:22.774Z,3.8
2023-04-22T01:14:32.446Z,4.8
2023-04-22T01:15:42.102Z,5.3
2023-04-22T01:16:50.810Z,5.5
2023-04-22T01:18:00.519Z,7.2
2023-04-22T01:19:08.128Z,5.6
2023-04-22T01:20:17.786Z,7.5
2023-04-22T01:21:26.456Z,3.6
2023-04-22T01:22:34.100Z,3.3
2023-04-22T01:23:43.777Z,4.1
2023-04-22T01:24:52.472Z,3.3
2023-04-22T01:26:02.096Z,2.8
2023-04-22T01:27:11.748Z,2.2
2023-04-22T01:28:20.419Z,2.3
2023-04-22T01:29:30.051Z,3.6
2023-04-22T01:30:38.722Z,3.6
2023-04-22T01:31:47.437Z,3.9
2023-04-22T01:32:57.085Z,2
2023-04-22T01:34:06.698Z,1.9
2023-04-22T01:35:15.352Z,1.3
2023-04-22T01:36:24.997Z,1
2023-04-22T01:37:34.644Z,0.9
2023-04-22T01:38:43.328Z,1
2023-04-22T01:39:50.964Z,0.8
2023-04-22T01:41:00.626Z,0.9
2023-04-22T01:42:09.252Z,1.1
2023-04-22T01:43:18.902Z,1.3
2023-04-22T01:44:26.578Z,1.8
2023-04-22T01:45:36.280Z,1.7
2023-04-22T01:46:45.880Z,1.9
2023-04-22T01:47:54.607Z,1.5
2023-04-22T01:49:04.253Z,1
2023-04-22T01:50:12.891Z,1.2
2023-04-22T01:51:21.537Z,1.1
2023-04-22T01:52:31.182Z,0.8
2023-04-22T01:53:39.848Z,0.9
2023-04-22T01:54:49.477Z,1
2023-04-22T01:55:58.105Z,0.6
2023-04-22T01:57:06.786Z,0.8
2023-04-22T01:58:16.456Z,1.1
2023-04-22T01:59:26.112Z,0.5
2023-04-22T02:00:35.773Z,0.9
2023-04-22T02:01:45.453Z,0.7
2023-04-22T02:02:54.169Z,0.6
2023-04-22T02:04:03.742Z,1.1
2023-04-22T02:05:12.464Z,0.9
2023-04-22T02:06:20.058Z,0.6
2023-04-22T02:07:30.719Z,0.8
2023-04-22T02:08:38.400Z,0.9
2023-04-22T02:09:50.256Z,1
2023-04-22T02:10:57.671Z,0.8
2023-04-22T02:12:06.338Z,0.7
2023-04-22T02:13:15.999Z,0.9
2023-04-22T02:14:24.678Z,0.8
2023-04-22T02:15:34.382Z,0.9
2023-04-22T02:16:44.027Z,1
2023-04-22T02:17:52.810Z,0.8
2023-04-22T02:19:01.496Z,1
2023-04-22T02:20:11.169Z,1.2
2023-04-22T02:21:19.792Z,0.9
2023-04-22T02:22:29.485Z,1.2
2023-04-22T02:23:38.117Z,1.4
2023-04-22T02:24:45.759Z,1
2023-04-22T02:25:55.421Z,1
2023-04-22T02:27:03.058Z,1.2
2023-04-22T02:28:12.709Z,1
2023-04-22T02:29:21.425Z,1.1
2023-04-22T02:30:30.043Z,1.2
2023-04-22T02:31:39.767Z,1.4
2023-04-22T02:32:48.408Z,0.9
2023-04-22T02:33:57.024Z,1
2023-04-22T02:35:06.705Z,1.2
2023-04-22T02:36:15.404Z,1.4
2023-04-22T02:37:25.033Z,1.4
2023-04-22T02:38:33.693Z,1.2
2023-04-22T02:39:42.551Z,1.4
2023-04-22T02:40:52.016Z,1.6
2023-04-22T02:42:01.725Z,1.3
2023-04-22T02:43:11.351Z,1.1
2023-04-22T02:44:21.027Z,1.3
2023-04-22T02:45:28.718Z,1.4
2023-04-22T02:46:37.347Z,1.7
2023-04-22T02:47:46.992Z,1.7
2023-04-22T02:48:56.682Z,1.7
2023-04-22T02:50:06.347Z,1.8
2023-04-22T02:51:15.990Z,1.3
2023-04-22T02:52:24.636Z,0.9
2023-04-22T02:53:34.276Z,1.4
2023-04-22T02:54:43.992Z,1.1
2023-04-22T02:55:53.663Z,1.2
2023-04-22T02:57:03.328Z,1.3
2023-04-22T02:58:10.988Z,0.8
2023-04-22T02:59:20.663Z,1.1
2023-04-22T03:00:30.349Z,0.9
2023-04-22T03:01:38.984Z,1
2023-04-22T03:02:48.763Z,1.3
2023-04-22T03:03:57.407Z,1.2
2023-04-22T03:05:05.981Z,1
2023-04-22T03:06:15.651Z,1.2
2023-04-22T03:07:24.283Z,1
2023-04-22T03:08:33.937Z,1.4
2023-04-22T03:09:42.733Z,1.1
2023-04-22T03:10:50.273Z,1.2
2023-04-22T03:11:59.924Z,1.2
2023-04-22T03:13:08.587Z,1.2
2023-04-22T03:14:18.234Z,1.2
2023-04-22T03:15:27.891Z,1
2023-04-22T03:16:35.627Z,1.2
2023-04-22T03:17:45.384Z,1.4
2023-04-22T03:18:53.945Z,1.5
2023-04-22T03:20:01.670Z,1.5
2023-04-22T03:21:11.312Z,1.3
2023-04-22T03:22:20.945Z,1.6
2023-04-22T03:23:30.581Z,1.3
2023-04-22T03:24:40.249Z,1.4
2023-04-22T03:25:46.885Z,1.5
2023-04-22T03:26:56.563Z,1.6
2023-04-22T03:28:05.229Z,1.6
2023-04-22T03:29:13.897Z,1.6
2023-04-22T03:30:22.583Z,1.6
2023-04-22T03:31:30.290Z,1.3
2023-04-22T03:32:38.966Z,1
2023-04-22T03:33:48.544Z,0.9
2023-04-22T03:34:56.190Z,0.8
2023-04-22T03:36:05.845Z,1.3
2023-04-22T03:37:14.509Z,1.4
2023-04-22T03:38:23.161Z,1.5
2023-04-22T03:39:31.820Z,1.6
2023-04-22T03:40:41.482Z,1.6
2023-04-22T03:41:49.127Z,1.1
2023-04-22T03:42:58.823Z,1.2
2023-04-22T03:44:08.458Z,1.2
2023-04-22T03:45:16.136Z,1.3
2023-04-22T03:46:25.818Z,0.9
2023-04-22T03:47:33.424Z,1
2023-04-22T03:48:43.110Z,0.9
2023-04-22T03:49:52.792Z,0.8
2023-04-22T03:51:00.402Z,0.9
2023-04-22T03:52:10.040Z,1.1
2023-04-22T03:53:19.685Z,1.1
2023-04-22T03:54:29.365Z,1
2023-04-22T03:55:39.121Z,0.5
2023-04-22T03:56:46.768Z,0.5
2023-04-22T03:57:55.431Z,0.7
2023-04-22T03:59:05.125Z,0.9
2023-04-22T04:00:13.799Z,0.6
2023-04-22T04:01:23.485Z,0.7
2023-04-22T04:02:32.190Z,0.6
2023-04-22T04:03:40.917Z,0.5
2023-04-22T04:04:50.848Z,0.6
2023-04-22T04:05:58.268Z,0.6
2023-04-22T04:07:05.779Z,0.9
2023-04-22T04:08:15.445Z,0.8
2023-04-22T04:09:24.132Z,0.6
2023-04-22T04:10:33.814Z,0.8
2023-04-22T04:11:43.490Z,0.8
2023-04-22T04:12:52.132Z,0.5
2023-04-22T04:14:01.800Z,0.6
2023-04-22T04:15:11.491Z,0.7
2023-04-22T04:16:20.193Z,0.7
2023-04-22T04:17:29.803Z,0.8
2023-04-22T04:18:38.427Z,0.8
2023-04-22T04:19:48.166Z,0.8
2023-04-22T04:20:57.798Z,0.7
2023-04-22T04:22:07.484Z,0.7
2023-04-22T04:23:17.137Z,0.5
2023-04-22T04:24:25.907Z,1.1
2023-04-22T04:25:35.564Z,0.8
2023-04-22T04:26:45.214Z,0.9
2023-04-22T04:27:52.857Z,0.9
2023-04-22T04:29:02.561Z,0.6
2023-04-22T04:30:12.221Z,0.6
2023-04-22T04:31:19.928Z,0.9
2023-04-22T04:32:29.550Z,0.7
2023-04-22T04:33:38.157Z,0.7
2023-04-22T04:34:46.834Z,0.8
2023-04-22T04:35:56.471Z,0.8
2023-04-22T04:37:04.244Z,0.8
2023-04-22T04:38:13.824Z,1.2
2023-04-22T04:39:22.471Z,0.8
2023-04-22T04:40:31.166Z,0.6
2023-04-22T04:41:40.798Z,0.8
2023-04-22T04:42:49.453Z,0.7
2023-04-22T04:43:58.104Z,0.9
2023-04-22T04:45:07.768Z,0.9
2023-04-22T04:46:16.424Z,0.8
2023-04-22T04:47:26.069Z,0.9
2023-04-22T04:48:35.706Z,0.9
2023-04-22T04:49:44.414Z,0.8
2023-04-22T04:50:53.068Z,1
2023-04-22T04:52:01.321Z,1.4
2023-04-22T04:53:11.355Z,1.3
2023-04-22T04:54:21.024Z,1.2
2023-04-22T04:55:31.800Z,1
2023-04-22T04:56:41.455Z,0.9
2023-04-22T04:57:50.110Z,1.1
2023-04-22T04:58:58.778Z,1.1
2023-04-22T05:00:08.487Z,1
2023-04-22T05:01:16.133Z,0.9
2023-04-22T05:02:25.975Z,1
2023-04-22T05:03:35.509Z,0.8
2023-04-22T05:04:43.188Z,1.1
2023-04-22T05:05:51.758Z,0.9
2023-04-22T05:07:01.514Z,0.8
2023-04-22T05:08:10.158Z,0.6
2023-04-22T05:09:19.825Z,0.7
2023-04-22T05:10:27.516Z,0.7
2023-04-22T05:11:36.203Z,0.6
2023-04-22T05:12:44.835Z,0.8
2023-04-22T05:13:53.498Z,0.7
2023-04-22T05:15:03.157Z,1.2
2023-04-22T05:16:11.947Z,1.8
2023-04-22T05:17:18.632Z,2.8
2023-04-22T05:18:28.221Z,3.3
2023-04-22T05:19:37.002Z,2.9
2023-04-22T05:20:46.561Z,3.5
2023-04-22T05:21:56.192Z,2.7
2023-04-22T05:23:03.873Z,1.9
2023-04-22T05:24:14.564Z,2.4
2023-04-22T05:25:23.226Z,1.9
2023-04-22T05:26:31.892Z,2
2023-04-22T05:27:41.562Z,2.2
2023-04-22T05:28:49.250Z,2
2023-04-22T05:29:59.076Z,1.6
2023-04-22T05:31:08.747Z,1.8
2023-04-22T05:32:16.498Z,1.8
2023-04-22T05:33:26.104Z,2.1
2023-04-22T05:34:34.755Z,1.6
2023-04-22T05:35:43.467Z,1.4
2023-04-22T05:36:51.110Z,1.6
2023-04-22T05:38:00.757Z,0.8
2023-04-22T05:39:08.409Z,0.8
2023-04-22T05:40:18.075Z,0.8
2023-04-22T05:41:27.733Z,0.6
2023-04-22T05:42:37.436Z,0.7
2023-04-22T05:43:47.063Z,0.8
2023-04-22T05:44:54.721Z,0.8
2023-04-22T05:46:03.423Z,0.6
2023-04-22T05:47:13.027Z,0.8
2023-04-22T05:48:20.693Z,1.2
2023-04-22T05:49:30.347Z,1.3
2023-04-22T05:50:40.013Z,0.9
2023-04-22T05:51:47.671Z,1.3
2023-04-22T05:52:57.335Z,1.1
2023-04-22T05:54:04.981Z,1.3
2023-04-22T05:55:13.760Z,1.3
2023-04-22T05:56:23.503Z,1
2023-04-22T05:57:32.165Z,0.8
2023-04-22T05:58:41.823Z,0.7
2023-04-22T05:59:50.483Z,0.9
2023-04-22T06:01:00.206Z,0.8
2023-04-22T06:02:10.275Z,0.8
2023-04-22T06:03:18.949Z,0.7
2023-04-22T06:04:27.626Z,0.9
2023-04-22T06:05:37.102Z,1.3
2023-04-22T06:06:44.706Z,1.1
2023-04-22T06:07:54.412Z,0.9
2023-04-22T06:09:03.034Z,0.7
2023-04-22T06:10:10.687Z,1
2023-04-22T06:11:20.409Z,0.9
2023-04-22T06:12:29.039Z,0.7
2023-04-22T06:13:38.693Z,1.3
2023-04-22T06:14:48.366Z,1.6
2023-04-22T06:15:56.041Z,3.9
2023-04-22T06:17:05.697Z,1.5
2023-04-22T06:18:16.339Z,0.9
2023-04-22T06:19:24.987Z,0.7
2023-04-22T06:20:34.691Z,1
2023-04-22T06:21:43.334Z,0.5
2023-04-22T06:22:51.982Z,0.7
2023-04-22T06:24:01.639Z,0.8
2023-04-22T06:25:10.276Z,0.7
2023-04-22T06:26:19.949Z,1
2023-04-22T06:27:29.605Z,0.8
2023-04-22T06:28:38.250Z,1
2023-04-22T06:29:47.901Z,1
2023-04-22T06:30:56.665Z,0.8
2023-04-22T06:32:05.207Z,0.7
2023-04-22T06:33:14.865Z,0.7
2023-04-22T06:34:23.505Z,2.3
2023-04-22T06:35:33.188Z,1.7
2023-04-22T06:36:42.008Z,1.2
2023-04-22T06:37:49.651Z,0.7
2023-04-22T06:38:59.342Z,1.1
2023-04-22T06:40:09.966Z,0.7
2023-04-22T06:41:18.642Z,0.6
2023-04-22T06:42:28.287Z,0.6
2023-04-22T06:43:37.946Z,0.4
2023-04-22T06:44:47.602Z,0.4
2023-04-22T06:45:56.279Z,0.6
2023-04-22T06:47:04.998Z,0.8
2023-04-22T06:48:14.597Z,0.8
2023-04-22T06:49:22.268Z,0.6
2023-04-22T06:50:30.957Z,0.6
2023-04-22T06:51:40.657Z,0.6
2023-04-22T06:52:48.334Z,0.5
2023-04-22T06:53:57.952Z,0.5
2023-04-22T06:55:07.587Z,0.6
2023-04-22T06:56:16.233Z,0.5
2023-04-22T06:57:25.919Z,0.5
2023-04-22T06:58:34.567Z,0.6
2023-04-22T06:59:46.594Z,0.7
2023-04-22T07:00:54.015Z,0.5
2023-04-22T07:02:02.829Z,0.5
2023-04-22T07:03:12.453Z,0.4
2023-04-22T07:04:21.030Z,0.4
2023-04-22T07:05:29.664Z,0.6
2023-04-22T07:06:39.368Z,0.4
2023-04-22T07:07:49.066Z,0.5
2023-04-22T07:08:58.708Z,0.4
2023-04-22T07:10:08.385Z,0.4
2023-04-22T07:11:18.034Z,0.3
2023-04-22T07:12:28.751Z,0.3
2023-04-22T07:13:37.396Z,0.5
2023-04-22T07:14:46.067Z,0.8
2023-04-22T07:15:55.857Z,0.6
2023-04-22T07:17:03.409Z,0.3
2023-04-22T07:18:12.106Z,0.3
2023-04-22T07:19:21.836Z,0.4
2023-04-22T07:20:30.473Z,0.2
2023-04-22T07:21:40.181Z,0.6
2023-04-22T07:22:48.817Z,0.4
2023-04-22T07:23:58.485Z,0.1
2023-04-22T07:25:07.201Z,0.4
2023-04-22T07:26:14.856Z,0.3
2023-04-22T07:27:23.565Z,0.3
2023-04-22T07:28:33.209Z,0.3
2023-04-22T07:29:42.890Z,0.2
2023-04-22T07:30:52.583Z,0.1
2023-04-22T07:32:01.290Z,0.2
2023-04-22T07:33:10.912Z,0.2
2023-04-22T07:34:20.544Z,0.1
2023-04-22T07:35:30.295Z,0.2
2023-04-22T07:36:38.934Z,0.1
2023-04-22T07:37:48.619Z,0.2
2023-04-22T07:38:57.296Z,0.4
2023-04-22T07:40:06.912Z,0.2
2023-04-22T07:41:16.584Z,0.1
2023-04-22T07:42:25.278Z,0.1
2023-04-22T07:43:33.916Z,0.1
2023-04-22T07:44:43.560Z,0.2
2023-04-22T07:45:51.255Z,0.2
2023-04-22T07:47:00.916Z,0.2
2023-04-22T07:48:09.583Z,0.4
2023-04-22T07:49:16.227Z,0.2
2023-04-22T07:50:25.941Z,0.3
2023-04-22T07:51:34.687Z,0.1
2023-04-22T07:52:43.383Z,0.3
2023-04-22T07:53:53.069Z,0.2
2023-04-22T07:54:59.780Z,0.3
2023-04-22T07:56:09.428Z,0.3
2023-04-22T07:57:19.886Z,0.2
2023-04-22T07:58:27.547Z,0.1
2023-04-22T07:59:36.197Z,0.1
2023-04-22T08:00:44.850Z,0.1
2023-04-22T08:01:54.485Z,0.1
2023-04-22T08:03:03.329Z,0.3
2023-04-22T08:04:11.953Z,0.2
2023-04-22T08:05:21.547Z,0.2
2023-04-22T08:06:30.119Z,0.2
2023-04-22T08:07:38.805Z,0.1
2023-04-22T08:08:48.461Z,0.2
2023-04-22T08:09:56.132Z,0.2
2023-04-22T08:11:04.802Z,0.2
2023-04-22T08:12:14.468Z,0.2
2023-04-22T08:13:22.188Z,0.1
2023-04-22T08:14:31.833Z,0.2
2023-04-22T08:15:41.517Z,0.1
2023-04-22T08:16:49.180Z,0.1
2023-04-22T08:17:58.903Z,0.2
2023-04-22T08:19:06.504Z,0.2
2023-04-22T08:20:15.221Z,0.2
2023-04-22T08:21:24.875Z,0.1
2023-04-22T08:22:34.558Z,0.1
2023-04-22T08:23:44.234Z,0.1
2023-04-22T08:24:52.917Z,0.1
2023-04-22T08:26:01.565Z,0.2
2023-04-22T08:27:10.267Z,0.1
2023-04-22T08:28:18.956Z,0.2
2023-04-22T08:29:28.639Z,0.1
2023-04-22T08:30:38.299Z,0.7
2023-04-22T08:31:48.113Z,0.5
2023-04-22T08:32:57.981Z,0.3
2023-04-22T08:34:05.576Z,0.2
2023-04-22T08:35:14.250Z,0.3
2023-04-22T08:36:23.921Z,0.1
2023-04-22T08:37:31.578Z,0.1
2023-04-22T08:38:41.273Z,0.2
2023-04-22T08:39:51.014Z,0.2
2023-04-22T08:40:59.650Z,0.1
2023-04-22T08:42:09.315Z,0.3
2023-04-22T08:43:19.835Z,0.3
2023-04-22T08:44:29.537Z,0.3
2023-04-22T08:45:39.209Z,0.1
2023-04-22T08:46:46.915Z,0.1
2023-04-22T08:47:55.516Z,0.1
2023-04-22T08:49:05.190Z,0.1
2023-04-22T08:50:14.867Z,0.1
2023-04-22T08:51:24.538Z,0.1
2023-04-22T08:52:32.237Z,0.1
2023-04-22T08:53:40.948Z,0.1
2023-04-22T08:54:50.609Z,0.1
2023-04-22T08:55:59.284Z,0.1
2023-04-22T08:57:07.912Z,0.2
2023-04-22T08:58:17.591Z,0.2
2023-04-22T08:59:26.237Z,0.1
2023-04-22T09:00:35.897Z,0.1
2023-04-22T09:01:44.647Z,0.1
2023-04-22T09:02:52.255Z,0.2
2023-04-22T09:04:01.977Z,0.1
2023-04-22T09:05:10.554Z,0.2
2023-04-22T09:06:19.193Z,0.1
2023-04-22T09:07:28.870Z,0.1
2023-04-22T09:08:37.590Z,0.2
2023-04-22T09:09:47.342Z,0
2023-04-22T09:10:56.003Z,0.1
2023-04-22T09:12:05.832Z,0.2
2023-04-22T09:13:15.385Z,0
2023-04-22T09:14:24.050Z,0.1
2023-04-22T09:15:32.716Z,0.2
2023-04-22T09:16:42.407Z,0.2
2023-04-22T09:17:51.097Z,0.1
2023-04-22T09:19:00.729Z,0.1
2023-04-22T09:20:09.397Z,0
2023-04-22T09:21:17.029Z,0.1
2023-04-22T09:22:26.689Z,0.1
2023-04-22T09:23:35.409Z,0.1
2023-04-22T09:24:44.085Z,0.2
2023-04-22T09:25:52.742Z,0.2
2023-04-22T09:27:00.408Z,0.2
2023-04-22T09:28:10.056Z,0.1
2023-04-22T09:29:18.764Z,0.2
2023-04-22T09:30:27.423Z,0.1
2023-04-22T09:31:37.076Z,0.2
2023-04-22T09:32:45.776Z,0.1
2023-04-22T09:33:54.419Z,0.2
2023-04-22T09:35:04.063Z,0.1
2023-04-22T09:36:12.711Z,0.2
2023-04-22T09:37:20.354Z,0.2
2023-04-22T09:38:30.027Z,0.2
2023-04-22T09:39:38.977Z,0.2
2023-04-22T09:40:48.416Z,0.3
2023-04-22T09:41:58.070Z,0.1
2023-04-22T09:43:06.784Z,0.1
2023-04-22T09:44:16.547Z,0.1
2023-04-22T09:45:25.168Z,0.1
2023-04-22T09:46:32.819Z,0.1
2023-04-22T09:47:42.509Z,0.2
2023-04-22T09:48:52.166Z,0.2
2023-04-22T09:50:00.840Z,0.2
2023-04-22T09:51:09.493Z,0.2
2023-04-22T09:52:17.155Z,0.2
2023-04-22T09:53:26.809Z,0.1
2023-04-22T09:54:36.511Z,0.2
2023-04-22T09:55:44.157Z,0.2
2023-04-22T09:56:53.845Z,0.1
2023-04-22T09:58:03.480Z,0.2
2023-04-22T09:59:12.166Z,0.1
2023-04-22T10:00:21.935Z,0.1
2023-04-22T10:01:30.571Z,0.2
2023-04-22T10:02:40.282Z,0.2
2023-04-22T10:03:49.908Z,0.3
2023-04-22T10:04:58.614Z,0
2023-04-22T10:06:08.261Z,0.1
2023-04-22T10:07:15.977Z,0.1
2023-04-22T10:08:25.643Z,0.1
2023-04-22T10:09:35.380Z,0.2
2023-04-22T10:10:43.039Z,0.3
2023-04-22T10:11:52.736Z,0.2
2023-04-22T10:13:01.423Z,0.1
2023-04-22T10:14:10.156Z,0.2
2023-04-22T10:15:19.864Z,0.4
2023-04-22T10:16:29.605Z,0.1
2023-04-22T10:17:38.246Z,0.1
2023-04-22T10:18:47.844Z,0.1
2023-04-22T10:19:55.582Z,0.3
2023-04-22T10:21:05.339Z,0.1
2023-04-22T10:22:12.966Z,0.3
2023-04-22T10:23:21.634Z,0.2
2023-04-22T10:24:31.342Z,0.1
2023-04-22T10:25:39.952Z,0.2
2023-04-22T10:26:48.615Z,0.3
2023-04-22T10:27:58.338Z,0.3
2023-04-22T10:29:08.043Z,0.1
2023-04-22T10:30:17.699Z,0.2
2023-04-22T10:31:26.383Z,0.3
2023-04-22T10:32:36.061Z,0.1
2023-04-22T10:33:45.686Z,0.1
2023-04-22T10:34:53.394Z,0
2023-04-22T10:36:02.045Z,0.1
2023-04-22T10:37:11.828Z,0.1
2023-04-22T10:38:20.428Z,0.2
2023-04-22T10:39:30.175Z,0
2023-04-22T10:40:39.827Z,0.2
2023-04-22T10:41:47.514Z,0.1
2023-04-22T10:42:57.157Z,0.1
2023-04-22T10:44:05.812Z,0.1
2023-04-22T10:45:15.539Z,0.1
2023-04-22T10:46:25.281Z,0
2023-04-22T10:47:33.903Z,0.2
2023-04-22T10:48:43.570Z,0.1
2023-04-22T10:49:52.236Z,0.1
2023-04-22T10:51:01.883Z,0.2
2023-04-22T10:52:11.545Z,0
2023-04-22T10:53:20.195Z,0.1
2023-04-22T10:54:32.077Z,0
2023-04-22T10:55:40.576Z,0.1
2023-04-22T10:56:55.568Z,0.1
2023-04-22T10:58:00.865Z,0
2023-04-22T10:59:10.566Z,0.1
2023-04-22T11:00:19.236Z,0
2023-04-22T11:01:28.969Z,0.1
2023-04-22T11:02:38.735Z,0.1
2023-04-22T11:03:48.405Z,0
2023-04-22T11:04:57.960Z,0.1
2023-04-22T11:06:05.614Z,0.1
2023-04-22T11:07:14.301Z,0.2
2023-04-22T11:08:22.989Z,0
2023-04-22T11:09:32.683Z,0.1
2023-04-22T11:10:44.301Z,0.1
2023-04-22T11:11:52.127Z,0.1
2023-04-22T11:13:01.836Z,0.1
2023-04-22T11:14:11.547Z,0.1
2023-04-22T11:15:20.208Z,0.1
2023-04-22T11:16:29.914Z,0
2023-04-22T11:17:38.562Z,0.1
2023-04-22T11:18:47.208Z,0.2
2023-04-22T11:19:56.882Z,0.1
2023-04-22T11:21:05.583Z,0.1
2023-04-22T11:22:14.255Z,0.1
2023-04-22T11:23:24.091Z,18.6
2023-04-22T11:24:33.755Z,0.1
2023-04-22T11:25:43.450Z,0.1
2023-04-22T11:26:52.115Z,0.1
2023-04-22T11:28:00.806Z,0
2023-04-22T11:29:11.557Z,0.1
2023-04-22T11:30:20.257Z,0.1
2023-04-22T11:31:28.937Z,0.1
2023-04-22T11:32:37.669Z,0.3
2023-04-22T11:33:50.205Z,0.1
2023-04-22T11:34:57.924Z,0.3
2023-04-22T11:36:07.644Z,0.1
2023-04-22T11:37:15.263Z,0
2023-04-22T11:38:23.903Z,0.2
2023-04-22T11:39:33.569Z,0.2
2023-04-22T11:40:45.827Z,0.1
2023-04-22T11:41:53.862Z,0.2
2023-04-22T11:43:02.526Z,0.1
2023-04-22T11:44:10.201Z,0
2023-04-22T11:45:18.888Z,0.1
2023-04-22T11:46:28.620Z,0
2023-04-22T11:47:37.224Z,0
2023-04-22T11:48:46.849Z,0
2023-04-22T11:49:54.571Z,0.2
2023-04-22T11:51:04.448Z,0
2023-04-22T11:52:12.165Z,0.1
2023-04-22T11:53:20.977Z,0.1
2023-04-22T11:54:30.636Z,0
2023-04-22T11:55:39.436Z,0.1
2023-04-22T11:56:49.128Z,0
2023-04-22T11:57:58.818Z,0.1
2023-04-22T11:59:06.519Z,0.1
2023-04-22T12:00:16.210Z,0.1
2023-04-22T12:01:25.972Z,0.1
2023-04-22T12:02:33.688Z,0.2
2023-04-22T12:03:43.643Z,0.2
2023-04-22T12:04:52.094Z,0.1
2023-04-22T12:06:01.825Z,0
2023-04-22T12:07:11.486Z,0.1
2023-04-22T12:08:19.188Z,0
2023-04-22T12:09:27.832Z,0.2
2023-04-22T12:10:36.545Z,0.2
2023-04-22T12:11:44.196Z,0.5
2023-04-22T12:12:53.896Z,0.3
2023-04-22T12:14:02.576Z,0.1
2023-04-22T12:15:13.921Z,0
2023-04-22T12:16:22.924Z,0.1
2023-04-22T12:17:31.611Z,0.4
2023-04-22T12:18:40.266Z,0.3
2023-04-22T12:19:48.930Z,457.1
2023-04-22T12:20:56.673Z,999.90002
2023-04-22T12:22:06.357Z,999.90002
2023-04-22T12:23:14.045Z,0.1
2023-04-22T12:24:23.740Z,0
2023-04-22T12:25:33.413Z,0.1
2023-04-22T12:26:42.118Z,0.2
2023-04-22T12:27:51.850Z,0.1
2023-04-22T12:29:00.637Z,0
2023-04-22T12:30:10.293Z,11.8
2023-04-22T12:31:20.019Z,0
2023-04-22T12:32:29.665Z,0.3
2023-04-22T12:33:38.348Z,0.2
2023-04-22T12:34:48.011Z,999.90002
2023-04-22T12:35:57.690Z,999.90002
2023-04-22T12:37:07.427Z,999.90002
2023-04-22T12:38:16.092Z,999.90002
2023-04-22T12:39:25.837Z,999.90002
2023-04-22T12:40:35.456Z,999.90002
2023-04-22T12:41:43.149Z,999.90002
2023-04-22T12:42:52.889Z,0.1
2023-04-22T12:44:02.626Z,0.1
2023-04-22T12:45:12.308Z,0
2023-04-22T12:46:22.015Z,0.1
2023-04-22T12:47:31.703Z,0
2023-04-22T12:48:39.323Z,0.1
2023-04-22T12:49:48.998Z,0.3
2023-04-22T12:50:57.690Z,0.2
2023-04-22T12:52:07.431Z,0.1
2023-04-22T12:53:17.116Z,0.1
2023-04-22T12:54:25.822Z,0.2
2023-04-22T12:55:35.531Z,0.1
2023-04-22T12:56:44.182Z,0.1
2023-04-22T12:57:51.839Z,0.1
2023-04-22T12:59:01.501Z,0.1
2023-04-22T13:00:11.185Z,0.2
2023-04-22T13:01:20.875Z,0
2023-04-22T13:02:30.665Z,0
2023-04-22T13:03:39.343Z,0
2023-04-22T13:04:48.883Z,0.1
2023-04-22T13:05:57.531Z,0
2023-04-22T13:07:05.251Z,0.1
2023-04-22T13:08:14.912Z,0.1
2023-04-22T13:09:23.577Z,0.1
2023-04-22T13:10:33.237Z,0
2023-04-22T13:11:42.981Z,0
2023-04-22T13:12:51.599Z,0
2023-04-22T13:14:01.291Z,0
2023-04-22T13:15:10.920Z,0.1
2023-04-22T13:16:20.601Z,0
2023-04-22T13:17:30.396Z,0
2023-04-22T13:18:39.060Z,0
2023-04-22T13:19:47.732Z,0.1
2023-04-22T13:20:57.489Z,0.2
2023-04-22T13:22:05.197Z,0
2023-04-22T13:23:14.894Z,0
2023-04-22T13:24:24.590Z,0.1
2023-04-22T13:25:33.240Z,0.1
2023-04-22T13:26:42.931Z,0.1
2023-04-22T13:27:51.651Z,0
2023-04-22T13:29:00.853Z,0.1
2023-04-22T13:30:10.089Z,0.1
2023-04-22T13:31:18.822Z,0.1
2023-04-22T13:32:28.477Z,0
2023-04-22T13:33:38.166Z,0
2023-04-22T13:34:46.846Z,0.1
2023-04-22T13:35:56.524Z,0.1
2023-04-22T13:37:06.215Z,0.1
2023-04-22T13:38:13.867Z,0.2
2023-04-22T13:39:23.730Z,0.2
2023-04-22T13:40:33.385Z,0.1
2023-04-22T13:41:42.069Z,0.1
2023-04-22T13:42:51.781Z,0
2023-04-22T13:44:01.482Z,0.1
2023-04-22T13:45:11.114Z,0.1
2023-04-22T13:46:20.885Z,0
2023-04-22T13:47:29.481Z,0.2
2023-04-22T13:48:39.110Z,0.1
2023-04-22T13:49:48.783Z,0
2023-04-22T13:50:57.457Z,0.3
2023-04-22T13:52:07.157Z,0.2
2023-04-22T13:53:15.860Z,0
2023-04-22T13:54:25.530Z,0.1
2023-04-22T13:55:35.202Z,0.2
2023-04-22T13:56:42.898Z,0.1
2023-04-22T13:57:52.680Z,0.2
2023-04-22T13:59:01.349Z,0
2023-04-22T14:00:11.026Z,0.1
2023-04-22T14:01:20.693Z,0.1
2023-04-22T14:02:29.403Z,0.1
2023-04-22T14:03:38.074Z,0.1
2023-04-22T14:04:47.716Z,0.1
2023-04-22T14:05:56.407Z,0.1
2023-04-22T14:07:06.062Z,0.1
2023-04-22T14:08:14.712Z,0.3
2023-04-22T14:09:23.419Z,0.4
2023-04-22T14:10:33.055Z,0.2
2023-04-22T14:11:40.724Z,0.2
2023-04-22T14:12:49.398Z,0.1
2023-04-22T14:13:59.042Z,0.2
2023-04-22T14:15:08.698Z,0.3
2023-04-22T14:16:18.474Z,0.1
2023-04-22T14:17:27.223Z,0.2
2023-04-22T14:18:35.977Z,0.1
2023-04-22T14:19:45.633Z,0.1
2023-04-22T14:20:54.276Z,0.3
2023-04-22T14:22:02.979Z,0.1
2023-04-22T14:23:10.669Z,0.1
2023-04-22T14:24:18.307Z,0.1
2023-04-22T14:25:27.998Z,0.2
2023-04-22T14:26:37.668Z,0.2
2023-04-22T14:27:46.375Z,0.2
2023-04-22T14:28:56.171Z,0.4
2023-04-22T14:30:04.876Z,0.2
2023-04-22T14:31:13.551Z,0.1
2023-04-22T14:32:23.281Z,0.1
2023-04-22T14:33:31.321Z,0.3
2023-04-22T14:34:40.949Z,0.4
2023-04-22T14:35:49.649Z,0.3
2023-04-22T14:36:57.399Z,0.1
2023-04-22T14:38:07.127Z,0
2023-04-22T14:39:15.773Z,0
2023-04-22T14:40:24.552Z,0.2
2023-04-22T14:41:34.279Z,0.1
2023-04-22T14:42:42.056Z,0.1
2023-04-22T14:43:51.736Z,0.1
2023-04-22T14:45:00.452Z,0.1
2023-04-22T14:46:09.126Z,0.2
2023-04-22T14:47:18.829Z,0.1
2023-04-22T14:48:27.630Z,0
2023-04-22T14:49:36.258Z,0.1
2023-04-22T14:50:45.950Z,0.1
2023-04-22T14:51:54.632Z,0.1
2023-04-22T14:53:05.333Z,0.1
2023-04-22T14:54:14.274Z,0.2
2023-04-22T14:55:24.296Z,0.2
2023-04-22T14:56:33.721Z,0.3
2023-04-22T14:57:42.368Z,0.2
2023-04-22T14:59:00.750Z,0.2
2023-04-22T15:00:10.266Z,0.1
2023-04-22T15:01:17.927Z,0.1
2023-04-22T15:02:27.677Z,0.1
2023-04-22T15:03:37.550Z,0.2
2023-04-22T15:04:44.965Z,0.1
2023-04-22T15:05:54.685Z,0
2023-04-22T15:07:05.630Z,0.1
2023-04-22T15:08:14.049Z,0
2023-04-22T15:09:22.703Z,0.1
2023-04-22T15:10:32.412Z,0.3
2023-04-22T15:11:42.071Z,0.1
2023-04-22T15:12:50.726Z,0
2023-04-22T15:13:59.485Z,0.2
2023-04-22T15:15:09.168Z,0.2
2023-04-22T15:16:16.924Z,0
2023-04-22T15:17:26.614Z,0.1
2023-04-22T15:18:36.337Z,0.1
2023-04-22T15:19:45.059Z,0.1
2023-04-22T15:20:54.696Z,0.2
2023-04-22T15:22:03.378Z,0.2
2023-04-22T15:23:12.034Z,0.1
2023-04-22T15:24:21.744Z,0.1
2023-04-22T15:25:30.437Z,0.3
2023-04-22T15:26:40.126Z,0.1
2023-04-22T15:27:49.784Z,0.2
2023-04-22T15:28:58.466Z,0.2
2023-04-22T15:30:07.108Z,0.2
2023-04-22T15:31:16.885Z,0.2
2023-04-22T15:32:24.501Z,0.2
2023-04-22T15:33:33.170Z,0.1
2023-04-22T15:34:42.830Z,0.1
2023-04-22T15:35:50.514Z,0.1
2023-04-22T15:37:00.165Z,0.2
2023-04-22T15:38:07.893Z,0
2023-04-22T15:39:16.666Z,0.2
2023-04-22T15:40:26.379Z,0.2
2023-04-22T15:41:35.080Z,0.2
2023-04-22T15:42:43.740Z,0.2
2023-04-22T15:43:53.433Z,0.3
2023-04-22T15:45:03.777Z,0.3
2023-04-22T15:46:12.979Z,0.1
2023-04-22T15:47:21.809Z,0.2
2023-04-22T15:48:30.517Z,0.2
2023-04-22T15:49:40.454Z,0.1
2023-04-22T15:50:49.922Z,0.1
2023-04-22T15:51:59.633Z,0.2
2023-04-22T15:53:09.267Z,0.2
2023-04-22T15:54:16.953Z,0.1
2023-04-22T15:55:26.633Z,0.2
2023-04-22T15:56:36.478Z,0.1